createdAt,value
2019-03-13T00:00:44.154Z,75.86
2019-03-13T00:02:52.515Z,75.81
2019-03-13T00:04:59.182Z,76.07
2019-03-13T00:07:05.873Z,75.95
2019-03-13T00:09:13.152Z,76.01
2019-03-13T00:11:19.817Z,76.08
2019-03-13T00:13:26.510Z,76.01
2019-03-13T00:15:33.275Z,76.14
2019-03-13T00:17:39.946Z,76.38
2019-03-13T00:19:46.645Z,76.37
2019-03-13T00:21:53.308Z,76.38
2019-03-13T00:23:59.977Z,76.46
2019-03-13T00:26:07.050Z,76.42
2019-03-13T00:28:13.797Z,76.56
2019-03-13T00:30:20.524Z,76.61
2019-03-13T00:32:27.216Z,76.80
2019-03-13T00:34:33.883Z,76.73
2019-03-13T00:36:40.565Z,76.81
2019-03-13T00:38:47.261Z,76.84
2019-03-13T00:40:53.930Z,76.83
2019-03-13T00:43:00.587Z,76.90
2019-03-13T00:45:14.474Z,76.87
2019-03-13T00:47:21.212Z,76.62
2019-03-13T00:49:27.878Z,76.71
2019-03-13T00:51:36.995Z,76.79
2019-03-13T00:53:42.956Z,77.07
2019-03-13T00:55:49.625Z,77.06
2019-03-13T00:57:56.323Z,77.01
2019-03-13T01:00:03.262Z,76.84
2019-03-13T01:02:12.059Z,77.05
2019-03-13T01:04:20.401Z,77.01
2019-03-13T01:06:28.715Z,76.91
2019-03-13T01:08:35.383Z,77.01
2019-03-13T01:10:42.148Z,76.81
2019-03-13T01:12:48.810Z,76.72
2019-03-13T01:14:55.536Z,76.79
2019-03-13T01:17:02.302Z,76.75
2019-03-13T01:19:08.959Z,76.85
2019-03-13T01:21:15.627Z,76.82
2019-03-13T01:23:22.324Z,77.00
2019-03-13T01:25:29.000Z,76.96
2019-03-13T01:27:35.673Z,76.97
2019-03-13T01:29:42.360Z,76.95
2019-03-13T01:32:06.891Z,76.96
2019-03-13T01:34:23.965Z,77.09
2019-03-13T01:36:30.649Z,77.09
2019-03-13T01:38:37.359Z,76.89
2019-03-13T01:40:43.985Z,76.98
2019-03-13T01:42:50.693Z,76.98
2019-03-13T01:44:57.416Z,77.16
2019-03-13T01:47:04.099Z,77.08
2019-03-13T01:49:10.776Z,77.11
2019-03-13T01:51:17.555Z,76.94
2019-03-13T01:53:24.288Z,76.80
2019-03-13T01:55:30.996Z,76.95
2019-03-13T01:57:37.662Z,76.99
2019-03-13T01:59:44.326Z,76.71
2019-03-13T02:01:51.023Z,76.56
2019-03-13T02:03:57.821Z,76.70
2019-03-13T02:06:04.488Z,76.75
2019-03-13T02:08:11.179Z,76.58
2019-03-13T02:10:17.862Z,76.51
2019-03-13T02:12:24.508Z,76.50
2019-03-13T02:14:31.200Z,76.50
2019-03-13T02:16:37.875Z,76.47
2019-03-13T02:18:44.599Z,76.59
2019-03-13T02:20:51.285Z,76.60
2019-03-13T02:22:57.951Z,76.54
2019-03-13T02:25:06.819Z,76.49
2019-03-13T02:27:13.529Z,76.47
2019-03-13T02:29:21.266Z,76.36
2019-03-13T02:31:27.934Z,76.30
2019-03-13T02:33:34.717Z,76.37
2019-03-13T02:35:41.363Z,76.51
2019-03-13T02:37:48.057Z,76.38
2019-03-13T02:39:54.734Z,76.21
2019-03-13T02:42:01.403Z,75.80
2019-03-13T02:44:08.073Z,75.64
2019-03-13T02:46:14.838Z,75.46
2019-03-13T02:48:21.497Z,75.38
2019-03-13T02:50:28.319Z,75.42
2019-03-13T02:52:35.006Z,75.55
2019-03-13T02:54:41.683Z,75.44
2019-03-13T02:56:48.347Z,75.04
2019-03-13T02:58:55.227Z,75.24
2019-03-13T03:01:12.747Z,75.00
2019-03-13T03:03:21.061Z,75.24
2019-03-13T03:05:27.808Z,75.01
2019-03-13T03:07:34.546Z,74.97
2019-03-13T03:09:41.215Z,74.98
2019-03-13T03:11:48.001Z,74.84
2019-03-13T03:13:54.717Z,74.73
2019-03-13T03:16:01.387Z,74.63
2019-03-13T03:18:09.077Z,74.63
2019-03-13T03:20:21.080Z,74.34
2019-03-13T03:22:27.756Z,73.94
2019-03-13T03:24:34.463Z,73.56
2019-03-13T03:26:41.112Z,73.66
2019-03-13T03:28:47.859Z,73.15
2019-03-13T03:30:54.970Z,73.11
2019-03-13T03:33:01.642Z,72.84
2019-03-13T03:35:08.302Z,72.76
2019-03-13T03:37:14.994Z,72.54
2019-03-13T03:39:21.745Z,72.02
2019-03-13T03:41:28.801Z,72.19
2019-03-13T03:43:40.586Z,72.18
2019-03-13T03:45:43.863Z,72.06
2019-03-13T03:47:50.544Z,71.95
2019-03-13T03:49:57.215Z,71.65
2019-03-13T03:52:03.889Z,71.76
2019-03-13T03:54:11.765Z,71.56
2019-03-13T03:56:18.529Z,71.41
2019-03-13T03:58:29.647Z,71.38
2019-03-13T04:00:36.784Z,71.52
2019-03-13T04:02:43.853Z,71.39
2019-03-13T04:04:50.514Z,71.53
2019-03-13T04:06:57.182Z,71.22
2019-03-13T04:09:04.960Z,70.91
2019-03-13T04:11:11.697Z,71.17
2019-03-13T04:13:18.453Z,71.18
2019-03-13T04:15:25.219Z,71.33
2019-03-13T04:17:31.950Z,71.08
2019-03-13T04:19:38.618Z,70.88
2019-03-13T04:21:45.311Z,70.36
2019-03-13T04:23:51.979Z,70.80
2019-03-13T04:25:58.648Z,70.47
2019-03-13T04:28:05.731Z,70.35
2019-03-13T04:30:13.809Z,70.12
2019-03-13T04:32:20.549Z,70.04
2019-03-13T04:34:27.304Z,69.71
2019-03-13T04:36:33.967Z,69.37
2019-03-13T04:38:40.640Z,69.41
2019-03-13T04:40:47.316Z,69.38
2019-03-13T04:42:53.977Z,69.10
2019-03-13T04:45:00.632Z,68.70
2019-03-13T04:47:07.313Z,68.60
2019-03-13T04:49:14.057Z,68.64
2019-03-13T04:51:20.715Z,68.31
2019-03-13T04:53:27.426Z,68.30
2019-03-13T04:55:34.144Z,67.97
2019-03-13T04:57:40.811Z,67.86
2019-03-13T04:59:47.570Z,67.42
2019-03-13T05:01:54.230Z,67.38
2019-03-13T05:04:00.900Z,67.17
2019-03-13T05:06:12.178Z,67.16
2019-03-13T05:08:23.261Z,66.32
2019-03-13T05:10:29.932Z,66.82
2019-03-13T05:12:36.731Z,66.50
2019-03-13T05:14:43.396Z,66.47
2019-03-13T05:16:50.168Z,66.39
2019-03-13T05:18:56.841Z,66.70
2019-03-13T05:21:03.502Z,65.61
2019-03-13T05:23:10.165Z,65.26
2019-03-13T05:25:19.217Z,65.15
2019-03-13T05:27:25.580Z,65.24
2019-03-13T05:29:32.234Z,64.74
2019-03-13T05:31:39.002Z,64.33
2019-03-13T05:33:45.868Z,63.91
2019-03-13T05:35:52.610Z,63.94
2019-03-13T05:37:59.300Z,63.42
2019-03-13T05:40:10.713Z,62.68
2019-03-13T05:42:18.593Z,62.72
2019-03-13T05:44:25.345Z,62.16
2019-03-13T05:46:32.077Z,61.91
2019-03-13T05:48:38.745Z,61.11
2019-03-13T05:50:45.444Z,60.87
2019-03-13T05:52:52.602Z,60.48
2019-03-13T05:54:59.269Z,60.21
2019-03-13T05:57:05.961Z,60.33
2019-03-13T05:59:12.699Z,59.70
2019-03-13T06:01:19.410Z,59.11
2019-03-13T06:03:27.201Z,59.05
2019-03-13T06:05:33.935Z,58.72
2019-03-13T06:07:40.604Z,58.38
2019-03-13T06:09:47.294Z,58.15
2019-03-13T06:11:54.024Z,57.89
2019-03-13T06:14:00.755Z,58.17
2019-03-13T06:16:07.441Z,57.71
2019-03-13T06:18:14.180Z,58.23
2019-03-13T06:20:20.903Z,57.09
2019-03-13T06:22:27.604Z,56.87
2019-03-13T06:24:34.261Z,56.76
2019-03-13T06:26:40.912Z,56.85
2019-03-13T06:28:47.607Z,55.81
2019-03-13T06:30:54.261Z,55.43
2019-03-13T06:33:00.918Z,54.83
2019-03-13T06:35:09.879Z,53.95
2019-03-13T06:37:16.546Z,53.24
2019-03-13T06:39:23.207Z,53.31
2019-03-13T06:41:29.893Z,52.78
2019-03-13T06:43:36.548Z,52.19
2019-03-13T06:45:43.209Z,53.61
2019-03-13T06:47:49.913Z,54.24
2019-03-13T06:49:56.566Z,53.77
2019-03-13T06:52:03.233Z,53.48
2019-03-13T06:54:09.928Z,54.01
2019-03-13T06:56:18.005Z,54.56
2019-03-13T06:58:26.380Z,54.46
2019-03-13T07:00:35.768Z,54.66
2019-03-13T07:02:44.065Z,54.50
2019-03-13T07:05:04.725Z,55.34
2019-03-13T07:07:13.041Z,54.66
2019-03-13T07:09:21.347Z,54.90
2019-03-13T07:11:39.588Z,54.98
2019-03-13T07:13:47.916Z,54.85
2019-03-13T07:15:56.211Z,54.54
2019-03-13T07:18:20.566Z,54.44
2019-03-13T07:20:31.910Z,53.77
2019-03-13T07:22:40.219Z,53.18
2019-03-13T07:24:48.513Z,52.70
2019-03-13T07:26:54.950Z,51.60
2019-03-13T07:29:15.159Z,50.71
2019-03-13T07:31:38.834Z,49.55
2019-03-13T07:33:49.926Z,49.92
2019-03-13T07:35:58.220Z,48.87
2019-03-13T07:38:09.232Z,48.63
2019-03-13T07:40:17.555Z,49.16
2019-03-13T07:42:25.942Z,49.89
2019-03-13T07:44:32.368Z,50.72
2019-03-13T07:46:49.809Z,50.99
2019-03-13T07:49:09.918Z,50.76
2019-03-13T07:51:20.926Z,51.11
2019-03-13T07:53:27.373Z,51.12
2019-03-13T07:55:38.391Z,51.20
2019-03-13T07:57:52.553Z,51.64
2019-03-13T08:00:00.880Z,51.25
2019-03-13T08:02:09.203Z,51.13
2019-03-13T08:04:23.314Z,50.86
2019-03-13T08:06:31.645Z,50.54
2019-03-13T08:08:46.125Z,50.74
2019-03-13T08:11:09.498Z,49.78
2019-03-13T08:13:24.715Z,50.19
2019-03-13T08:15:33.003Z,50.29
2019-03-13T08:17:41.336Z,50.51
2019-03-13T08:19:49.701Z,50.14
2019-03-13T08:22:14.204Z,50.77
2019-03-13T08:24:22.495Z,50.76
2019-03-13T08:26:36.801Z,49.64
2019-03-13T08:28:43.229Z,50.15
2019-03-13T08:31:09.765Z,49.29
2019-03-13T08:33:21.914Z,48.67
2019-03-13T08:35:36.446Z,48.67
2019-03-13T08:38:00.983Z,48.91
2019-03-13T08:40:10.602Z,47.94
2019-03-13T08:42:35.327Z,48.55
2019-03-13T08:44:59.589Z,47.79
2019-03-13T08:47:24.006Z,47.09
2019-03-13T08:49:32.307Z,47.38
2019-03-13T08:51:40.594Z,47.62
2019-03-13T08:53:56.369Z,47.00
2019-03-13T08:56:14.110Z,48.19
2019-03-13T08:58:34.326Z,47.71
2019-03-13T09:00:50.043Z,48.34
2019-03-13T09:03:16.402Z,47.81
2019-03-13T09:05:25.798Z,48.19
2019-03-13T09:07:43.365Z,47.30
2019-03-13T09:10:07.643Z,46.36
2019-03-13T09:12:15.943Z,46.81
2019-03-13T09:14:27.218Z,46.60
2019-03-13T09:16:35.518Z,46.78
2019-03-13T09:18:46.831Z,46.48
2019-03-13T09:21:01.204Z,46.53
2019-03-13T09:23:18.825Z,46.49
2019-03-13T09:25:43.440Z,46.13
2019-03-13T09:28:01.976Z,46.56
2019-03-13T09:30:15.099Z,44.16
2019-03-13T09:32:39.836Z,44.46
2019-03-13T09:34:48.173Z,43.79
2019-03-13T09:37:08.642Z,43.97
2019-03-13T09:39:18.028Z,43.91
2019-03-13T09:41:29.111Z,43.89
2019-03-13T09:43:53.627Z,43.21
2019-03-13T09:46:18.200Z,43.68
2019-03-13T09:48:32.746Z,44.00
2019-03-13T09:50:41.867Z,43.27
2019-03-13T09:52:51.972Z,43.90
2019-03-13T09:55:16.214Z,44.35
2019-03-13T09:57:33.280Z,44.24
2019-03-13T09:59:50.324Z,44.32
2019-03-13T10:02:10.718Z,44.23
2019-03-13T10:04:25.264Z,44.20
2019-03-13T10:06:49.945Z,44.78
2019-03-13T10:09:04.436Z,45.34
2019-03-13T10:11:17.269Z,46.63
2019-03-13T10:13:34.586Z,48.13
2019-03-13T10:15:45.849Z,49.53
2019-03-13T10:17:58.048Z,51.66
2019-03-13T10:20:07.592Z,52.02
2019-03-13T10:22:14.032Z,51.47
2019-03-13T10:24:32.725Z,51.64
2019-03-13T10:26:41.023Z,51.86
2019-03-13T10:28:49.346Z,51.04
2019-03-13T10:31:12.636Z,49.91
2019-03-13T10:33:20.926Z,50.14
2019-03-13T10:35:45.545Z,48.31
2019-03-13T10:37:57.896Z,47.65
2019-03-13T10:40:24.276Z,48.72
2019-03-13T10:42:30.731Z,47.67
2019-03-13T10:44:55.036Z,47.54
2019-03-13T10:47:12.207Z,47.53
2019-03-13T10:49:20.541Z,48.87
2019-03-13T10:51:45.182Z,48.84
2019-03-13T10:53:56.528Z,48.79
2019-03-13T10:56:04.852Z,48.14
2019-03-13T10:58:13.249Z,48.60
2019-03-13T11:00:21.828Z,48.21
2019-03-13T11:02:42.481Z,49.60
2019-03-13T11:04:50.777Z,48.18
2019-03-13T11:06:59.081Z,49.11
2019-03-13T11:09:07.350Z,49.91
2019-03-13T11:11:17.224Z,50.55
2019-03-13T11:13:43.792Z,51.42
2019-03-13T11:16:08.160Z,52.43
2019-03-13T11:18:28.467Z,52.88
2019-03-13T11:20:34.883Z,55.61
2019-03-13T11:22:53.394Z,56.45
2019-03-13T11:25:07.576Z,58.80
2019-03-13T11:27:32.177Z,60.46
2019-03-13T11:29:52.757Z,61.38
2019-03-13T11:32:01.097Z,62.21
2019-03-13T11:34:15.677Z,62.50
2019-03-13T11:36:40.235Z,63.38
2019-03-13T11:38:51.256Z,64.25
2019-03-13T11:40:59.555Z,63.85
2019-03-13T11:43:15.045Z,65.07
2019-03-13T11:45:35.537Z,65.30
2019-03-13T11:47:43.862Z,65.10
2019-03-13T11:49:57.979Z,65.27
2019-03-13T11:52:09.461Z,65.72
2019-03-13T11:54:32.785Z,66.00
2019-03-13T11:56:39.232Z,67.35
2019-03-13T11:58:53.272Z,67.40
2019-03-13T12:01:01.556Z,67.36
2019-03-13T12:03:18.895Z,67.66
2019-03-13T12:05:32.965Z,68.21
2019-03-13T12:07:52.911Z,68.13
2019-03-13T12:09:59.360Z,68.87
2019-03-13T12:12:13.761Z,68.83
2019-03-13T12:14:31.112Z,68.01
2019-03-13T12:16:39.497Z,68.30
2019-03-13T12:18:53.564Z,68.48
2019-03-13T12:21:18.016Z,67.94
2019-03-13T12:23:24.460Z,67.85
2019-03-13T12:25:32.762Z,67.72
2019-03-13T12:27:44.015Z,67.94
2019-03-13T12:29:50.474Z,68.70
2019-03-13T12:32:14.973Z,68.57
2019-03-13T12:34:24.139Z,69.22
2019-03-13T12:36:42.039Z,69.29
2019-03-13T12:39:06.604Z,69.36
2019-03-13T12:41:31.910Z,69.38
2019-03-13T12:43:46.437Z,69.60
2019-03-13T12:46:00.695Z,69.50
2019-03-13T12:48:16.170Z,69.41
2019-03-13T12:50:19.755Z,70.18
2019-03-13T15:15:25.629Z,59.73
2019-03-13T15:17:32.294Z,59.50
2019-03-13T15:23:07.691Z,58.58
2019-03-13T15:25:15.866Z,57.89
2019-03-13T15:27:22.591Z,58.00
2019-03-13T15:29:29.273Z,58.49
2019-03-13T15:31:35.936Z,58.70
2019-03-13T15:33:42.597Z,58.77
2019-03-13T15:35:49.348Z,58.25
2019-03-13T15:37:56.162Z,58.85
2019-03-13T15:40:03.409Z,58.19
2019-03-13T15:42:10.090Z,59.12
2019-03-13T15:44:16.826Z,58.73
2019-03-13T15:46:23.560Z,59.79
2019-03-13T15:48:30.313Z,59.63
2019-03-13T15:50:36.911Z,59.80
2019-03-13T15:52:43.565Z,60.42
2019-03-13T15:54:51.329Z,60.03
2019-03-13T15:56:58.082Z,60.47
2019-03-13T15:59:04.736Z,61.23
2019-03-13T16:01:11.434Z,62.24
2019-03-13T16:03:18.130Z,61.80
2019-03-13T16:05:24.915Z,62.43
2019-03-13T16:07:31.596Z,62.77
2019-03-13T16:09:39.725Z,63.17
2019-03-13T16:11:47.816Z,63.68
2019-03-13T16:13:54.568Z,63.00
2019-03-13T16:16:01.689Z,63.27
2019-03-13T16:18:10.098Z,63.05
2019-03-13T16:20:18.174Z,63.62
2019-03-13T16:22:26.179Z,63.78
2019-03-13T16:24:32.902Z,63.50
2019-03-13T16:26:39.878Z,64.11
2019-03-13T16:28:46.611Z,63.50
2019-03-13T16:30:54.940Z,64.07
2019-03-13T16:33:02.846Z,63.40
2019-03-13T16:35:11.687Z,64.11
2019-03-13T16:37:19.617Z,64.25
2019-03-13T16:39:26.629Z,64.54
2019-03-13T16:41:33.226Z,65.37
2019-03-13T16:43:40.042Z,65.56
2019-03-13T16:45:46.804Z,65.98
2019-03-13T16:49:05.380Z,66.35
2019-03-13T16:51:12.309Z,66.27
2019-03-13T16:53:18.895Z,66.17
2019-03-13T16:57:31.039Z,65.37
2019-03-13T16:59:37.692Z,65.21
2019-03-13T17:01:44.417Z,65.21
2019-03-13T17:03:51.123Z,65.86
2019-03-13T17:06:00.452Z,65.69
2019-03-13T17:08:07.184Z,65.66
2019-03-13T17:10:17.505Z,65.73
2019-03-13T17:12:24.922Z,65.67
2019-03-13T17:14:31.589Z,65.80
2019-03-13T17:16:38.264Z,65.42
2019-03-13T17:18:48.887Z,65.20
2019-03-13T17:20:56.953Z,65.37
2019-03-13T17:23:03.720Z,64.95
2019-03-13T17:25:14.913Z,65.36
2019-03-13T17:27:21.610Z,64.87
2019-03-13T17:29:28.264Z,64.75
2019-03-13T17:31:34.918Z,64.16
2019-03-13T17:33:42.347Z,64.21
2019-03-13T17:35:49.050Z,64.55
2019-03-13T17:37:55.786Z,64.83
2019-03-13T17:40:02.520Z,64.69
2019-03-13T17:42:10.610Z,64.21
2019-03-13T17:44:18.736Z,64.33
2019-03-13T17:46:25.463Z,64.83
2019-03-13T17:48:32.238Z,65.05
2019-03-13T17:50:38.960Z,65.01
2019-03-13T17:52:45.680Z,65.46
2019-03-13T17:54:52.370Z,65.31
2019-03-13T17:57:00.895Z,65.57
2019-03-13T17:59:09.108Z,65.80
2019-03-13T18:01:17.086Z,65.85
2019-03-13T18:03:25.148Z,66.72
2019-03-13T18:05:31.809Z,66.14
2019-03-13T18:07:38.648Z,66.31
2019-03-13T18:09:46.847Z,65.95
2019-03-13T18:11:55.043Z,66.42
2019-03-13T18:14:02.932Z,66.19
2019-03-13T18:16:09.670Z,66.11
2019-03-13T18:18:16.400Z,65.49
2019-03-13T18:20:24.757Z,66.04
2019-03-13T18:22:31.490Z,65.65
2019-03-13T18:24:38.199Z,65.78
2019-03-13T18:26:44.972Z,65.68
2019-03-13T18:28:51.700Z,65.41
2019-03-13T18:31:01.681Z,65.89
2019-03-13T18:33:07.293Z,65.28
2019-03-13T18:35:15.631Z,65.71
2019-03-13T18:37:22.356Z,65.25
2019-03-13T18:39:29.037Z,65.24
2019-03-13T18:41:35.696Z,65.81
2019-03-13T18:43:42.441Z,65.33
2019-03-13T18:45:49.191Z,65.68
2019-03-13T18:47:56.232Z,65.39
2019-03-13T18:50:02.962Z,65.35
2019-03-13T18:52:10.024Z,65.82
2019-03-13T18:54:16.761Z,65.45
2019-03-13T18:56:24.828Z,65.82
2019-03-13T18:58:34.589Z,66.06
2019-03-13T19:00:40.048Z,65.98
2019-03-13T19:02:46.881Z,66.25
2019-03-13T19:04:53.578Z,66.15
2019-03-13T19:07:00.406Z,66.74
2019-03-13T19:09:07.709Z,67.80
2019-03-13T19:11:15.922Z,67.42
2019-03-13T19:13:22.593Z,67.04
2019-03-13T19:15:30.423Z,66.69
2019-03-13T19:17:37.102Z,67.05
2019-03-13T19:19:43.839Z,67.34
2019-03-13T19:21:50.499Z,67.14
2019-03-13T19:23:58.638Z,67.53
2019-03-13T19:26:05.362Z,67.18
2019-03-13T19:28:12.108Z,67.55
2019-03-13T19:30:33.117Z,67.20
2019-03-13T19:32:39.844Z,67.72
2019-03-13T19:34:46.578Z,68.08
2019-03-13T19:36:53.440Z,68.08
2019-03-13T19:39:04.956Z,68.42
2019-03-13T19:41:13.510Z,68.22
2019-03-13T19:43:21.097Z,68.49
2019-03-13T19:45:40.204Z,68.94
2019-03-13T19:47:47.423Z,68.93
2019-03-13T19:49:54.173Z,68.90
2019-03-13T19:52:02.431Z,69.05
2019-03-13T19:54:09.105Z,69.35
2019-03-13T19:56:18.964Z,69.57
2019-03-13T19:58:26.689Z,69.58
2019-03-13T20:00:33.520Z,69.60
2019-03-13T20:02:40.295Z,70.16
2019-03-13T20:04:47.759Z,70.12
2019-03-13T20:06:54.734Z,70.08
2019-03-13T20:09:01.434Z,69.94
2019-03-13T20:11:13.598Z,70.50
2019-03-13T20:13:22.831Z,70.14
2019-03-13T20:15:37.294Z,70.35
2019-03-13T20:17:45.026Z,70.13
2019-03-13T20:19:53.227Z,70.34
2019-03-13T20:22:00.071Z,70.30
2019-03-13T20:24:07.904Z,70.42
2019-03-13T20:26:14.644Z,70.61
2019-03-13T20:28:21.408Z,70.57
2019-03-13T20:30:30.508Z,70.64
2019-03-13T20:32:39.039Z,70.90
2019-03-13T20:34:47.402Z,70.86
2019-03-13T20:36:54.132Z,70.96
2019-03-13T20:39:03.521Z,71.19
2019-03-13T20:41:13.287Z,71.42
2019-03-13T20:43:23.129Z,71.50
2019-03-13T20:45:33.034Z,71.43
2019-03-13T20:47:39.794Z,71.57
2019-03-13T20:49:51.291Z,71.74
2019-03-13T20:51:58.019Z,71.91
2019-03-13T20:54:04.841Z,72.30
2019-03-13T20:56:11.572Z,72.24
2019-03-13T20:58:18.240Z,72.78
2019-03-13T21:00:30.711Z,72.98
2019-03-13T21:02:42.004Z,73.13
2019-03-13T21:04:48.777Z,73.27
2019-03-13T21:06:55.539Z,73.47
2019-03-13T21:09:02.281Z,73.40
2019-03-13T21:11:10.473Z,73.55
2019-03-13T21:13:17.160Z,73.60
2019-03-13T21:15:30.042Z,73.79
2019-03-13T21:17:36.819Z,73.90
2019-03-13T21:19:46.432Z,73.68
2019-03-13T21:21:53.094Z,73.58
2019-03-13T21:24:01.034Z,73.69
2019-03-13T21:26:07.726Z,73.98
2019-03-13T21:28:16.047Z,74.06
2019-03-13T21:30:29.416Z,74.20
2019-03-13T21:32:36.102Z,74.52
2019-03-13T21:34:44.328Z,74.57
2019-03-13T21:36:50.988Z,74.68
2019-03-13T21:38:57.751Z,74.88
2019-03-13T21:41:04.496Z,74.84
2019-03-13T21:43:12.132Z,74.82
2019-03-13T21:45:22.678Z,74.93
2019-03-13T21:47:28.759Z,75.17
2019-03-13T21:49:35.923Z,75.26
2019-03-13T21:51:42.609Z,75.42
2019-03-13T21:53:49.346Z,75.49
2019-03-13T21:55:56.189Z,75.78
2019-03-13T21:58:04.515Z,75.84
2019-03-13T22:00:24.181Z,75.78
2019-03-13T22:02:33.187Z,76.07
2019-03-13T22:04:39.512Z,75.84
2019-03-13T22:06:46.179Z,75.85
2019-03-13T22:08:52.930Z,75.95
2019-03-13T22:10:59.635Z,75.99
2019-03-13T22:13:06.479Z,76.10
2019-03-13T22:15:23.045Z,76.00
2019-03-13T22:17:29.799Z,75.87
2019-03-13T22:19:36.458Z,76.04
2019-03-13T22:21:43.128Z,76.13
2019-03-13T22:23:49.811Z,76.32
2019-03-13T22:25:56.561Z,76.56
2019-03-13T22:28:03.210Z,76.41
2019-03-13T22:30:19.230Z,76.35
2019-03-13T22:32:26.637Z,76.47
2019-03-13T22:34:33.307Z,76.54
2019-03-13T22:36:40.076Z,76.57
2019-03-13T22:38:46.817Z,76.29
2019-03-13T22:40:53.488Z,76.27
2019-03-13T22:43:00.280Z,76.50
2019-03-13T22:45:11.138Z,76.30
2019-03-13T22:47:17.932Z,76.19
2019-03-13T22:49:24.629Z,76.11
2019-03-13T22:51:31.287Z,76.16
2019-03-13T22:53:37.949Z,76.07
2019-03-13T22:55:44.660Z,75.77
2019-03-13T22:57:51.315Z,75.96
2019-03-13T22:59:58.050Z,75.73
2019-03-13T23:02:05.711Z,75.38
2019-03-13T23:04:12.442Z,75.21
2019-03-13T23:06:19.188Z,75.00
2019-03-13T23:08:25.874Z,74.99
2019-03-13T23:10:34.742Z,75.01
2019-03-13T23:12:41.402Z,74.93
2019-03-13T23:14:48.154Z,74.88
2019-03-13T23:16:54.907Z,74.52
2019-03-13T23:19:01.578Z,74.64
2019-03-13T23:21:09.863Z,74.80
2019-03-13T23:23:16.605Z,74.48
2019-03-13T23:25:23.328Z,74.52
2019-03-13T23:27:30.034Z,74.28
2019-03-13T23:29:36.691Z,74.19
2019-03-13T23:31:43.496Z,74.24
2019-03-13T23:33:50.971Z,74.19
2019-03-13T23:35:58.645Z,74.26
2019-03-13T23:38:05.816Z,74.41
2019-03-13T23:40:12.511Z,74.42
2019-03-13T23:42:19.245Z,74.71
2019-03-13T23:44:25.931Z,74.72
2019-03-13T23:46:32.624Z,74.79
2019-03-13T23:48:39.281Z,74.86
2019-03-13T23:50:45.957Z,74.96
2019-03-13T23:52:52.677Z,75.11
2019-03-13T23:55:17.134Z,75.21
2019-03-13T23:57:23.558Z,74.95
2019-03-13T23:59:29.970Z,75.21
